Time;durP1;ratioP1;P1;durP2;ratioP2;P2;SDS_P1;SDS_P2;PMS_P1;PMS_P2;Temp;Humidity;BMP_temperature;BMP_pressure;BME280_temperature;BME280_humidity;BME280_pressure;Samples;Min_cycle;Max_cycle;Signal;HPM_P1;HPM_P2
2021/08/20 00:01:17;;;;;;;6.63;4.55;;;;;;;;;;5074559;28;20028;-45
2021/08/20 00:03:42;;;;;;;4.57;4.15;;;;;;;;;;5077159;28;20443;-43
2021/08/20 00:06:08;;;;;;;6.95;4.65;;;;;;;;;;5074237;28;20052;-43
2021/08/20 00:08:33;;;;;;;9.98;3.88;;;;;;;;;;5076649;28;20059;-45
2021/08/20 00:11:03;;;;;;;11.57;5.20;;;;;;;;;;5073243;28;20016;-42
2021/08/20 00:13:28;;;;;;;6.20;4.60;;;;;;;;;;5076895;28;20052;-45
2021/08/20 00:15:53;;;;;;;6.35;4.32;;;;;;;;;;5076787;28;20055;-44
2021/08/20 00:18:19;;;;;;;16.63;4.13;;;;;;;;;;5073143;28;20020;-44
2021/08/20 00:20:44;;;;;;;6.38;4.50;;;;;;;;;;5076577;28;20443;-45
2021/08/20 00:23:09;;;;;;;6.72;4.05;;;;;;;;;;5071981;28;20543;-44
2021/08/20 00:25:34;;;;;;;14.57;4.32;;;;;;;;;;5075045;28;20098;-45
2021/08/20 00:28:00;;;;;;;4.95;3.47;;;;;;;;;;5073053;28;20039;-50
2021/08/20 00:30:25;;;;;;;5.28;4.68;;;;;;;;;;5075279;28;20074;-45
2021/08/20 00:32:50;;;;;;;5.25;3.60;;;;;;;;;;5073684;28;20017;-44
2021/08/20 00:35:16;;;;;;;8.35;5.05;;;;;;;;;;5079511;28;20427;-46
2021/08/20 00:37:41;;;;;;;13.82;4.57;;;;;;;;;;5073417;28;20023;-44
2021/08/20 00:40:07;;;;;;;8.13;5.32;;;;;;;;;;5069646;28;20013;-44
2021/08/20 00:42:32;;;;;;;6.10;4.15;;;;;;;;;;5075602;28;20471;-46
2021/08/20 00:44:57;;;;;;;6.68;4.32;;;;;;;;;;5075140;28;20024;-46
2021/08/20 00:47:23;;;;;;;7.85;4.53;;;;;;;;;;5073541;28;20050;-43
2021/08/20 00:49:48;;;;;;;6.53;4.05;;;;;;;;;;5076577;28;20028;-43
2021/08/20 00:52:15;;;;;;;12.05;5.63;;;;;;;;;;5075397;28;20076;-43
2021/08/20 00:54:41;;;;;;;4.03;3.55;;;;;;;;;;5074176;28;20023;-48
2021/08/20 00:57:06;;;;;;;9.88;5.22;;;;;;;;;;5074033;28;20012;-44
2021/08/20 00:59:32;;;;;;;5.47;4.13;;;;;;;;;;5077111;28;20021;-44
2021/08/20 01:01:57;;;;;;;3.95;3.30;;;;;;;;;;5074993;28;20055;-46
2021/08/20 01:04:22;;;;;;;8.52;3.53;;;;;;;;;;5077162;28;20031;-47
2021/08/20 01:06:48;;;;;;;5.32;4.10;;;;;;;;;;5074206;28;20514;-44
2021/08/20 01:09:14;;;;;;;4.38;3.50;;;;;;;;;;5075121;28;20029;-45
2021/08/20 01:11:39;;;;;;;8.93;5.10;;;;;;;;;;5074857;28;20047;-45
2021/08/20 01:14:05;;;;;;;6.22;3.38;;;;;;;;;;5067223;28;20077;-44
2021/08/20 01:16:32;;;;;;;5.63;4.32;;;;;;;;;;5075111;28;20472;-46
2021/08/20 01:18:57;;;;;;;14.00;5.00;;;;;;;;;;5070837;28;20173;-43
2021/08/20 01:21:23;;;;;;;6.10;4.45;;;;;;;;;;5073877;28;20539;-44
2021/08/20 01:23:48;;;;;;;7.47;4.18;;;;;;;;;;5074528;28;20538;-44
2021/08/20 01:26:14;;;;;;;10.82;4.00;;;;;;;;;;5073622;28;20147;-48
2021/08/20 01:28:39;;;;;;;13.95;5.63;;;;;;;;;;5075770;28;20023;-46
2021/08/20 01:31:09;;;;;;;13.07;4.60;;;;;;;;;;5076557;28;20028;-50
2021/08/20 01:33:34;;;;;;;8.45;5.05;;;;;;;;;;5071124;28;20060;-47
2021/08/20 01:36:00;;;;;;;22.17;4.80;;;;;;;;;;5073029;28;20476;-51
2021/08/20 01:38:26;;;;;;;8.38;4.78;;;;;;;;;;5075781;28;20235;-51
2021/08/20 01:40:51;;;;;;;4.90;3.65;;;;;;;;;;5075256;28;20578;-51
2021/08/20 01:43:17;;;;;;;9.65;3.70;;;;;;;;;;5076428;28;20495;-47
2021/08/20 01:45:43;;;;;;;10.68;4.10;;;;;;;;;;5074664;28;20032;-49
2021/08/20 01:48:09;;;;;;;8.52;4.25;;;;;;;;;;5072541;28;20107;-46
2021/08/20 01:50:37;;;;;;;11.30;4.68;;;;;;;;;;5071563;28;20115;-47
2021/08/20 01:53:03;;;;;;;7.50;4.28;;;;;;;;;;5064202;28;20104;-48
2021/08/20 01:55:28;;;;;;;7.15;4.10;;;;;;;;;;5068860;28;20120;-49
2021/08/20 01:57:53;;;;;;;8.65;5.72;;;;;;;;;;5072796;28;20066;-47
2021/08/20 02:00:19;;;;;;;6.07;4.82;;;;;;;;;;5073229;28;20046;-45
2021/08/20 02:02:44;;;;;;;10.88;5.05;;;;;;;;;;5073852;28;20048;-45
2021/08/20 02:05:09;;;;;;;8.63;3.55;;;;;;;;;;5074775;28;20471;-49
2021/08/20 02:07:36;;;;;;;12.90;4.75;;;;;;;;;;5072852;28;20476;-49
2021/08/20 02:10:05;;;;;;;15.82;4.68;;;;;;;;;;5073923;28;20016;-44
2021/08/20 02:12:31;;;;;;;8.50;4.90;;;;;;;;;;5071703;28;20062;-45
2021/08/20 02:14:56;;;;;;;9.13;5.05;;;;;;;;;;5077312;28;20450;-51
2021/08/20 02:17:21;;;;;;;11.88;5.45;;;;;;;;;;5066142;28;20031;-44
2021/08/20 02:19:47;;;;;;;7.85;4.43;;;;;;;;;;5076785;28;20388;-45
2021/08/20 02:22:12;;;;;;;12.98;4.47;;;;;;;;;;5073887;28;20059;-44
2021/08/20 02:24:37;;;;;;;6.55;4.22;;;;;;;;;;5073538;28;20027;-45
2021/08/20 02:27:03;;;;;;;6.13;4.20;;;;;;;;;;5071902;28;20166;-45
2021/08/20 02:29:28;;;;;;;6.25;4.80;;;;;;;;;;5075350;28;20070;-45
2021/08/20 02:31:53;;;;;;;7.68;4.70;;;;;;;;;;5071537;28;20012;-45
2021/08/20 02:34:19;;;;;;;8.40;4.68;;;;;;;;;;5071599;28;20074;-47
2021/08/20 02:36:44;;;;;;;8.23;4.60;;;;;;;;;;5076487;28;20021;-45
2021/08/20 02:39:09;;;;;;;6.78;4.38;;;;;;;;;;5068647;28;20040;-46
2021/08/20 02:41:35;;;;;;;9.05;5.05;;;;;;;;;;5069112;28;20503;-44
2021/08/20 02:44:00;;;;;;;8.27;5.65;;;;;;;;;;5075140;28;20472;-45
2021/08/20 02:46:25;;;;;;;36.13;6.40;;;;;;;;;;5078260;28;20044;-47
2021/08/20 02:48:50;;;;;;;8.98;4.85;;;;;;;;;;5070301;28;20020;-50
2021/08/20 02:51:16;;;;;;;5.63;3.95;;;;;;;;;;5075717;28;20525;-48
2021/08/20 02:53:42;;;;;;;6.97;4.50;;;;;;;;;;5072260;28;20016;-51
2021/08/20 02:56:07;;;;;;;7.45;5.18;;;;;;;;;;5075995;28;20027;-46
2021/08/20 02:58:33;;;;;;;5.20;4.38;;;;;;;;;;5076013;28;20020;-48
2021/08/20 03:00:58;;;;;;;5.55;4.40;;;;;;;;;;5069642;28;20029;-45
2021/08/20 03:03:23;;;;;;;10.55;4.65;;;;;;;;;;5075444;28;20049;-46
2021/08/20 03:05:49;;;;;;;15.77;4.32;;;;;;;;;;5077133;28;20052;-46
2021/08/20 03:08:14;;;;;;;11.80;4.95;;;;;;;;;;5075032;28;20150;-43
2021/08/20 03:10:42;;;;;;;8.90;6.03;;;;;;;;;;5074519;28;20073;-47
2021/08/20 03:13:07;;;;;;;13.73;6.25;;;;;;;;;;5074859;28;20070;-46
2021/08/20 03:15:32;;;;;;;12.70;6.97;;;;;;;;;;5075035;28;20016;-44
2021/08/20 03:17:57;;;;;;;11.15;5.53;;;;;;;;;;5069133;28;20025;-44
2021/08/20 03:20:23;;;;;;;11.98;6.22;;;;;;;;;;5077439;28;20020;-45
2021/08/20 03:22:48;;;;;;;17.70;5.68;;;;;;;;;;5073908;28;20020;-49
2021/08/20 03:25:13;;;;;;;9.35;5.22;;;;;;;;;;5078069;28;20012;-44
2021/08/20 03:27:39;;;;;;;13.18;5.03;;;;;;;;;;5074056;28;20108;-45
2021/08/20 03:30:05;;;;;;;12.48;5.90;;;;;;;;;;5075998;28;20454;-46
2021/08/20 03:32:30;;;;;;;6.88;4.00;;;;;;;;;;5076899;28;20035;-44
2021/08/20 03:34:55;;;;;;;7.47;5.95;;;;;;;;;;5074189;28;20012;-43
2021/08/20 03:37:20;;;;;;;10.30;5.30;;;;;;;;;;5076745;28;20081;-45
2021/08/20 03:39:46;;;;;;;8.82;5.05;;;;;;;;;;5075645;28;20066;-43
2021/08/20 03:42:11;;;;;;;13.88;5.40;;;;;;;;;;5073655;28;20043;-45
2021/08/20 03:44:36;;;;;;;7.35;4.95;;;;;;;;;;5074188;28;20582;-44
2021/08/20 03:47:02;;;;;;;8.90;5.22;;;;;;;;;;5080955;28;20029;-43
2021/08/20 03:49:27;;;;;;;6.35;4.07;;;;;;;;;;5075229;28;20028;-43
2021/08/20 03:51:52;;;;;;;7.70;4.90;;;;;;;;;;5077183;28;20035;-43
2021/08/20 03:54:18;;;;;;;9.85;4.40;;;;;;;;;;5081814;28;20016;-47
2021/08/20 03:56:44;;;;;;;14.40;5.45;;;;;;;;;;5075762;28;20112;-43
2021/08/20 03:59:09;;;;;;;10.10;4.57;;;;;;;;;;5075993;28;20158;-44
2021/08/20 04:01:35;;;;;;;9.40;5.88;;;;;;;;;;5079564;28;20028;-44
2021/08/20 04:04:00;;;;;;;5.47;4.82;;;;;;;;;;5076031;28;20411;-48
2021/08/20 04:06:25;;;;;;;7.30;4.97;;;;;;;;;;5070277;28;20024;-50
2021/08/20 04:08:50;;;;;;;5.10;4.55;;;;;;;;;;5078520;28;20020;-44
2021/08/20 04:11:16;;;;;;;7.00;3.97;;;;;;;;;;5075679;28;20448;-45
2021/08/20 04:13:41;;;;;;;8.85;5.85;;;;;;;;;;5069719;28;20032;-47
2021/08/20 04:16:06;;;;;;;18.00;4.72;;;;;;;;;;5077281;28;20016;-47
2021/08/20 04:18:32;;;;;;;13.25;6.03;;;;;;;;;;5075163;28;20485;-45
2021/08/20 04:20:57;;;;;;;33.13;30.05;;;;;;;;;;5076242;28;20085;-45
2021/08/20 04:23:23;;;;;;;9.95;8.43;;;;;;;;;;5075499;28;20495;-45
2021/08/20 04:25:48;;;;;;;10.43;5.85;;;;;;;;;;5070885;28;20020;-45
2021/08/20 04:28:13;;;;;;;9.13;4.38;;;;;;;;;;5072974;28;20063;-47
2021/08/20 04:30:39;;;;;;;10.18;5.18;;;;;;;;;;5077142;28;20116;-44
2021/08/20 04:33:04;;;;;;;11.93;4.85;;;;;;;;;;5073036;28;20543;-43
2021/08/20 04:35:29;;;;;;;6.43;4.40;;;;;;;;;;5074121;28;20100;-47
2021/08/20 04:37:55;;;;;;;10.45;5.68;;;;;;;;;;5077318;28;20017;-50
2021/08/20 04:40:20;;;;;;;11.88;4.57;;;;;;;;;;5079627;28;20761;-46
2021/08/20 04:42:45;;;;;;;5.95;4.88;;;;;;;;;;5073455;28;20132;-45
2021/08/20 04:45:12;;;;;;;10.65;4.93;;;;;;;;;;5076981;28;20020;-39
2021/08/20 04:47:38;;;;;;;8.15;6.18;;;;;;;;;;5076720;28;20145;-39
2021/08/20 04:50:04;;;;;;;15.07;6.88;;;;;;;;;;5073529;28;20061;-38
2021/08/20 04:52:29;;;;;;;12.02;6.22;;;;;;;;;;5077274;28;20029;-38
2021/08/20 04:54:55;;;;;;;8.95;6.35;;;;;;;;;;5074286;28;20008;-39
2021/08/20 04:57:20;;;;;;;8.63;5.38;;;;;;;;;;5076308;28;20058;-38
2021/08/20 04:59:45;;;;;;;11.27;7.13;;;;;;;;;;5075944;28;20031;-39
2021/08/20 05:02:11;;;;;;;12.93;6.70;;;;;;;;;;5074290;28;20544;-38
2021/08/20 05:04:36;;;;;;;11.45;5.88;;;;;;;;;;5074997;28;20039;-38
2021/08/20 05:07:02;;;;;;;8.52;5.07;;;;;;;;;;5074769;28;20334;-38
2021/08/20 05:09:27;;;;;;;14.10;5.80;;;;;;;;;;5073336;28;20487;-38
2021/08/20 05:11:53;;;;;;;9.75;7.50;;;;;;;;;;5075098;28;20089;-39
2021/08/20 05:14:19;;;;;;;13.30;6.03;;;;;;;;;;5072017;28;20024;-38
2021/08/20 05:16:47;;;;;;;11.98;5.35;;;;;;;;;;5075992;28;20027;-38
2021/08/20 05:19:13;;;;;;;18.15;5.35;;;;;;;;;;5071674;28;20024;-40
2021/08/20 05:21:38;;;;;;;6.88;6.10;;;;;;;;;;5076879;28;20114;-39
2021/08/20 05:24:03;;;;;;;15.23;6.90;;;;;;;;;;5073979;28;20499;-39
2021/08/20 05:26:29;;;;;;;7.63;5.22;;;;;;;;;;5065204;28;20083;-39
2021/08/20 05:28:54;;;;;;;7.90;6.75;;;;;;;;;;5068951;28;20031;-40
2021/08/20 05:31:19;;;;;;;10.32;5.72;;;;;;;;;;5073010;28;20023;-40
2021/08/20 05:33:45;;;;;;;6.38;4.45;;;;;;;;;;5072322;28;20031;-40
2021/08/20 05:36:10;;;;;;;11.25;4.47;;;;;;;;;;5073734;28;20017;-40
2021/08/20 05:38:35;;;;;;;5.78;5.18;;;;;;;;;;5076569;28;20361;-39
2021/08/20 05:41:01;;;;;;;14.32;5.50;;;;;;;;;;5072395;28;20450;-39
2021/08/20 05:43:26;;;;;;;13.15;5.43;;;;;;;;;;5072105;28;20476;-39
2021/08/20 05:45:51;;;;;;;13.02;7.47;;;;;;;;;;5069473;28;20024;-38
2021/08/20 05:48:16;;;;;;;23.25;6.47;;;;;;;;;;5070355;28;20031;-39
2021/08/20 05:50:42;;;;;;;10.00;6.93;;;;;;;;;;5063869;28;20047;-39
2021/08/20 05:53:07;;;;;;;17.25;6.88;;;;;;;;;;5066624;28;20020;-41
2021/08/20 05:55:32;;;;;;;20.38;11.73;;;;;;;;;;5074333;28;20454;-41
2021/08/20 05:57:59;;;;;;;8.70;5.00;;;;;;;;;;5074073;28;20025;-39
2021/08/20 06:00:24;;;;;;;8.50;4.82;;;;;;;;;;5069117;28;20543;-40
2021/08/20 06:02:50;;;;;;;11.50;5.88;;;;;;;;;;5069919;28;20062;-39
2021/08/20 06:05:15;;;;;;;27.60;25.25;;;;;;;;;;5067597;28;20817;-39
2021/08/20 06:07:42;;;;;;;17.17;8.73;;;;;;;;;;5076180;28;20025;-39
2021/08/20 06:10:08;;;;;;;11.65;5.63;;;;;;;;;;5070711;28;20051;-39
2021/08/20 06:12:33;;;;;;;31.02;7.35;;;;;;;;;;5068756;28;20113;-40
2021/08/20 06:14:59;;;;;;;11.05;6.50;;;;;;;;;;5074139;28;20044;-48
2021/08/20 06:17:24;;;;;;;9.25;6.82;;;;;;;;;;5066702;28;20129;-50
2021/08/20 06:19:50;;;;;;;8.63;5.93;;;;;;;;;;5074320;28;20031;-47
2021/08/20 06:22:15;;;;;;;10.00;6.10;;;;;;;;;;5068362;28;20020;-46
2021/08/20 06:24:40;;;;;;;19.45;7.28;;;;;;;;;;5074157;28;20024;-46
2021/08/20 06:27:06;;;;;;;16.85;6.68;;;;;;;;;;5065024;28;20036;-45
2021/08/20 06:29:31;;;;;;;9.70;6.45;;;;;;;;;;5071658;28;20029;-47
2021/08/20 06:31:56;;;;;;;11.85;5.57;;;;;;;;;;5068943;28;20032;-50
2021/08/20 06:34:22;;;;;;;17.60;6.70;;;;;;;;;;5068399;28;20028;-49
2021/08/20 06:36:47;;;;;;;23.17;6.03;;;;;;;;;;5074269;28;20510;-45
2021/08/20 06:39:12;;;;;;;9.52;5.32;;;;;;;;;;5075651;28;20017;-44
2021/08/20 06:41:38;;;;;;;13.63;6.75;;;;;;;;;;5073951;28;20961;-46
2021/08/20 06:44:03;;;;;;;10.77;6.30;;;;;;;;;;5071639;28;20020;-45
2021/08/20 06:46:29;;;;;;;8.73;4.68;;;;;;;;;;5072852;28;20028;-43
2021/08/20 06:48:54;;;;;;;13.95;6.75;;;;;;;;;;5076858;28;20040;-45
2021/08/20 06:51:19;;;;;;;8.18;5.88;;;;;;;;;;5077580;28;20020;-49
2021/08/20 06:53:45;;;;;;;9.02;7.18;;;;;;;;;;5077306;28;20020;-53
2021/08/20 06:56:10;;;;;;;13.27;7.13;;;;;;;;;;5076028;28;20376;-58
2021/08/20 06:58:35;;;;;;;11.40;6.00;;;;;;;;;;5077527;28;20058;-59
2021/08/20 07:01:01;;;;;;;15.50;5.05;;;;;;;;;;5077223;28;20020;-59
2021/08/20 07:03:26;;;;;;;18.20;6.97;;;;;;;;;;5071264;28;20036;-59
2021/08/20 07:05:51;;;;;;;9.90;6.82;;;;;;;;;;5078670;28;20107;-58
2021/08/20 07:08:17;;;;;;;12.80;5.25;;;;;;;;;;5078655;28;20025;-58
2021/08/20 07:10:42;;;;;;;13.93;5.93;;;;;;;;;;5072427;28;20024;-59
2021/08/20 07:13:08;;;;;;;16.77;7.75;;;;;;;;;;5077447;28;20399;-59
2021/08/20 07:15:34;;;;;;;5.65;4.93;;;;;;;;;;5075087;28;20028;-59
2021/08/20 07:17:59;;;;;;;14.07;6.20;;;;;;;;;;5078860;28;20100;-59
2021/08/20 07:20:24;;;;;;;11.23;6.10;;;;;;;;;;5076543;28;20020;-59
2021/08/20 07:22:50;;;;;;;13.75;5.80;;;;;;;;;;5074245;28;20100;-58
2021/08/20 07:25:15;;;;;;;7.22;4.93;;;;;;;;;;5077574;28;20089;-59
2021/08/20 07:27:40;;;;;;;14.25;6.57;;;;;;;;;;5080165;28;20066;-59
2021/08/20 07:30:06;;;;;;;5.03;4.55;;;;;;;;;;5077182;28;20017;-59
2021/08/20 07:32:31;;;;;;;5.55;4.38;;;;;;;;;;5077640;28;20024;-59
2021/08/20 07:34:57;;;;;;;7.35;6.20;;;;;;;;;;5070290;28;20016;-59
2021/08/20 07:37:22;;;;;;;6.93;4.82;;;;;;;;;;5073962;28;20442;-55
2021/08/20 07:39:48;;;;;;;7.38;5.53;;;;;;;;;;5070339;28;20027;-59
2021/08/20 07:42:13;;;;;;;10.65;4.85;;;;;;;;;;5075153;28;20023;-59
2021/08/20 07:44:38;;;;;;;11.40;4.25;;;;;;;;;;5071995;28;20103;-59
2021/08/20 07:47:04;;;;;;;10.15;6.15;;;;;;;;;;5075992;28;20033;-60
2021/08/20 07:49:29;;;;;;;7.38;5.45;;;;;;;;;;5092481;28;20064;-60
2021/08/20 07:51:55;;;;;;;8.50;5.00;;;;;;;;;;5072296;28;20082;-59
2021/08/20 07:54:20;;;;;;;20.85;5.70;;;;;;;;;;5076372;28;20027;-60
2021/08/20 07:56:45;;;;;;;12.10;4.28;;;;;;;;;;5077357;28;20116;-59
2021/08/20 07:59:11;;;;;;;19.80;11.10;;;;;;;;;;5073314;28;20024;-59
2021/08/20 08:01:36;;;;;;;13.45;8.10;;;;;;;;;;5077266;28;20081;-59
2021/08/20 08:04:01;;;;;;;24.55;11.13;;;;;;;;;;5076106;28;20726;-47
2021/08/20 08:06:27;;;;;;;11.43;8.27;;;;;;;;;;5077433;28;20184;-45
2021/08/20 08:08:53;;;;;;;12.57;6.57;;;;;;;;;;5076474;28;20032;-44
2021/08/20 08:11:18;;;;;;;13.73;7.07;;;;;;;;;;5075817;28;20028;-44
2021/08/20 08:13:43;;;;;;;10.60;5.43;;;;;;;;;;5074251;28;20484;-47
2021/08/20 08:16:09;;;;;;;5.93;4.43;;;;;;;;;;5075910;28;20028;-46
2021/08/20 08:18:34;;;;;;;9.07;5.45;;;;;;;;;;5077418;28;20012;-45
2021/08/20 08:21:00;;;;;;;8.38;5.50;;;;;;;;;;5070344;28;20032;-44
2021/08/20 08:23:25;;;;;;;13.65;6.45;;;;;;;;;;5079465;28;20099;-46
2021/08/20 08:25:50;;;;;;;10.52;5.60;;;;;;;;;;5076748;28;20116;-47
2021/08/20 08:28:15;;;;;;;22.50;6.15;;;;;;;;;;5074395;28;20032;-45
2021/08/20 08:30:41;;;;;;;7.18;4.32;;;;;;;;;;5074799;28;20044;-46
2021/08/20 08:33:08;;;;;;;4.82;4.20;;;;;;;;;;5078462;28;20016;-49
2021/08/20 08:35:34;;;;;;;10.82;5.68;;;;;;;;;;5077900;28;20021;-40
2021/08/20 08:38:02;;;;;;;9.88;5.03;;;;;;;;;;5077243;28;20053;-43
2021/08/20 08:40:28;;;;;;;22.40;5.65;;;;;;;;;;5075697;28;20088;-43
2021/08/20 08:42:53;;;;;;;6.63;4.47;;;;;;;;;;5072100;28;20508;-42
2021/08/20 08:45:19;;;;;;;8.68;4.03;;;;;;;;;;5072595;28;20019;-45
2021/08/20 08:47:44;;;;;;;9.43;4.55;;;;;;;;;;5076093;28;20047;-47
2021/08/20 08:50:10;;;;;;;7.55;4.25;;;;;;;;;;5074065;28;20486;-45
2021/08/20 08:52:35;;;;;;;7.63;5.47;;;;;;;;;;5077443;28;20020;-49
2021/08/20 08:55:02;;;;;;;6.75;3.25;;;;;;;;;;5077609;28;20050;-46
2021/08/20 08:57:27;;;;;;;6.63;4.03;;;;;;;;;;5074126;28;20023;-46
2021/08/20 08:59:53;;;;;;;12.20;4.80;;;;;;;;;;5072024;28;20025;-48
2021/08/20 09:02:19;;;;;;;4.40;3.95;;;;;;;;;;5071110;28;20522;-51
2021/08/20 09:04:58;;;;;;;6.07;3.70;;;;;;;;;;5072392;28;20032;-50
2021/08/20 09:07:24;;;;;;;7.18;5.00;;;;;;;;;;5075965;28;20032;-46
2021/08/20 09:10:08;;;;;;;21.08;6.28;;;;;;;;;;5072965;28;20038;-49
2021/08/20 09:12:33;;;;;;;16.27;4.22;;;;;;;;;;5076932;28;20020;-47
2021/08/20 09:14:59;;;;;;;7.32;3.35;;;;;;;;;;5076963;28;20088;-46
2021/08/20 09:17:35;;;;;;;5.40;3.08;;;;;;;;;;5074924;28;20027;-43
2021/08/20 09:20:19;;;;;;;13.40;5.80;;;;;;;;;;5072254;28;20028;-43
2021/08/20 09:22:45;;;;;;;6.70;3.10;;;;;;;;;;5072730;28;20024;-45
2021/08/20 09:25:30;;;;;;;18.30;4.40;;;;;;;;;;5069669;28;20024;-41
2021/08/20 09:28:07;;;;;;;5.75;3.03;;;;;;;;;;5070503;28;20093;-41
2021/08/20 09:30:32;;;;;;;2.80;1.92;;;;;;;;;;5077343;28;20063;-40
2021/08/20 09:32:58;;;;;;;11.30;5.68;;;;;;;;;;5073282;28;20043;-45
2021/08/20 09:35:23;;;;;;;11.18;3.92;;;;;;;;;;5075483;28;20024;-45
2021/08/20 09:37:48;;;;;;;14.98;4.45;;;;;;;;;;5075947;28;20027;-46
2021/08/20 09:40:16;;;;;;;8.00;4.40;;;;;;;;;;5069682;28;20016;-45
2021/08/20 09:42:41;;;;;;;6.03;3.47;;;;;;;;;;5076371;28;20039;-44
2021/08/20 09:45:20;;;;;;;4.93;3.05;;;;;;;;;;5076989;28;20028;-41
2021/08/20 09:47:47;;;;;;;5.90;2.85;;;;;;;;;;5074253;28;20028;-41
2021/08/20 09:50:13;;;;;;;17.45;3.58;;;;;;;;;;5067243;28;20029;-42
2021/08/20 09:52:38;;;;;;;7.60;4.70;;;;;;;;;;5068721;28;20399;-43
2021/08/20 09:55:04;;;;;;;4.65;3.50;;;;;;;;;;5068565;28;20029;-46
2021/08/20 09:57:31;;;;;;;6.95;3.78;;;;;;;;;;5071982;28;20085;-46
2021/08/20 09:59:57;;;;;;;5.28;3.55;;;;;;;;;;5073729;28;20081;-48
2021/08/20 10:02:27;;;;;;;7.55;5.15;;;;;;;;;;5062110;28;20060;-47
2021/08/20 10:04:56;;;;;;;17.52;3.90;;;;;;;;;;5072932;28;20039;-50
2021/08/20 10:07:24;;;;;;;8.98;4.43;;;;;;;;;;5073459;28;20103;-47
2021/08/20 10:09:50;;;;;;;8.00;3.75;;;;;;;;;;5074336;28;20031;-49
2021/08/20 10:12:20;;;;;;;11.07;3.35;;;;;;;;;;5076615;28;20017;-48
2021/08/20 10:14:46;;;;;;;5.88;4.13;;;;;;;;;;5076179;28;20044;-47
2021/08/20 10:17:12;;;;;;;8.30;3.35;;;;;;;;;;5077918;28;20122;-48
2021/08/20 10:19:38;;;;;;;15.98;14.15;;;;;;;;;;5076505;28;20025;-48
2021/08/20 10:22:04;;;;;;;8.05;3.53;;;;;;;;;;5074069;28;20125;-49
2021/08/20 10:24:29;;;;;;;9.05;4.10;;;;;;;;;;5075857;28;20052;-47
2021/08/20 10:26:56;;;;;;;6.50;3.78;;;;;;;;;;5078757;28;20068;-44
2021/08/20 10:29:22;;;;;;;6.75;2.60;;;;;;;;;;5078213;28;20086;-46
2021/08/20 10:31:47;;;;;;;5.32;3.97;;;;;;;;;;5080221;28;20035;-43
2021/08/20 10:34:30;;;;;;;6.03;3.13;;;;;;;;;;5073951;28;20025;-46
2021/08/20 10:37:06;;;;;;;4.68;2.65;;;;;;;;;;5070052;28;20130;-47
2021/08/20 10:39:32;;;;;;;7.22;3.97;;;;;;;;;;5075356;28;20025;-45
2021/08/20 10:42:07;;;;;;;3.85;2.55;;;;;;;;;;5077341;28;20035;-46
2021/08/20 10:44:34;;;;;;;7.63;4.47;;;;;;;;;;5076769;28;20495;-49
2021/08/20 10:46:59;;;;;;;4.63;3.55;;;;;;;;;;5078331;28;20036;-49
2021/08/20 10:49:25;;;;;;;5.85;2.60;;;;;;;;;;5073364;28;20096;-47
2021/08/20 10:51:53;;;;;;;8.13;2.80;;;;;;;;;;5076509;28;20118;-48
2021/08/20 10:54:24;;;;;;;8.57;3.15;;;;;;;;;;5076964;28;20050;-50
2021/08/20 10:56:49;;;;;;;16.52;4.40;;;;;;;;;;5073026;28;20022;-50
2021/08/20 10:59:33;;;;;;;4.72;3.15;;;;;;;;;;5075231;28;20024;-50
2021/08/20 11:02:17;;;;;;;5.65;3.20;;;;;;;;;;5079748;28;20033;-47
2021/08/20 11:05:01;;;;;;;9.07;3.80;;;;;;;;;;5075004;28;20444;-52
2021/08/20 11:07:38;;;;;;;4.82;2.75;;;;;;;;;;5073435;28;20392;-46
2021/08/20 11:10:10;;;;;;;10.95;5.00;;;;;;;;;;5073851;28;20025;-47
2021/08/20 11:12:39;;;;;;;5.63;3.47;;;;;;;;;;5073929;28;20025;-48
2021/08/20 11:15:17;;;;;;;9.90;3.80;;;;;;;;;;5073725;28;20069;-48
2021/08/20 11:17:49;;;;;;;5.20;3.10;;;;;;;;;;5073841;28;20023;-47
2021/08/20 11:20:21;;;;;;;11.85;5.47;;;;;;;;;;5073640;28;20380;-49
2021/08/20 11:23:15;;;;;;;10.00;3.55;;;;;;;;;;5076908;28;20024;-46
2021/08/20 11:25:50;;;;;;;10.98;4.00;;;;;;;;;;5075415;28;20121;-49
2021/08/20 11:28:20;;;;;;;7.82;3.22;;;;;;;;;;5076339;28;20016;-51
2021/08/20 11:30:54;;;;;;;13.55;2.67;;;;;;;;;;5072097;28;20036;-48
2021/08/20 11:33:21;;;;;;;6.07;2.30;;;;;;;;;;5071622;28;20016;-47
2021/08/20 11:35:47;;;;;;;8.23;2.70;;;;;;;;;;5074823;28;20987;-48
2021/08/20 11:38:19;;;;;;;10.05;3.10;;;;;;;;;;5072099;28;20054;-50
2021/08/20 11:40:48;;;;;;;9.95;4.18;;;;;;;;;;5071819;28;20069;-52
2021/08/20 11:43:14;;;;;;;5.13;3.28;;;;;;;;;;5075872;28;20524;-48
2021/08/20 11:45:39;;;;;;;9.77;3.75;;;;;;;;;;5072538;28;20024;-48
2021/08/20 11:48:05;;;;;;;8.40;4.00;;;;;;;;;;5067877;28;20100;-49
2021/08/20 11:50:31;;;;;;;5.82;3.67;;;;;;;;;;5066205;28;20023;-52
2021/08/20 11:52:57;;;;;;;5.47;2.63;;;;;;;;;;5071491;28;20070;-46
2021/08/20 11:55:22;;;;;;;6.95;3.63;;;;;;;;;;5071962;28;20025;-47
2021/08/20 11:57:48;;;;;;;4.65;2.55;;;;;;;;;;5072708;28;20213;-51
2021/08/20 12:00:14;;;;;;;5.53;2.78;;;;;;;;;;5074849;28;20020;-46
2021/08/20 12:02:40;;;;;;;5.17;3.17;;;;;;;;;;5031609;28;1239467;-48
2021/08/20 12:05:18;;;;;;;10.45;4.22;;;;;;;;;;5078077;28;20032;-51
2021/08/20 12:07:44;;;;;;;5.40;3.58;;;;;;;;;;5073334;28;20475;-48
2021/08/20 12:10:10;;;;;;;5.85;3.05;;;;;;;;;;5073812;28;20058;-52
2021/08/20 12:12:39;;;;;;;7.18;3.55;;;;;;;;;;5078210;28;20021;-51
2021/08/20 12:15:05;;;;;;;5.47;3.17;;;;;;;;;;5074798;28;20487;-49
2021/08/20 12:17:32;;;;;;;7.35;3.25;;;;;;;;;;5073066;28;20017;-46
2021/08/20 12:19:58;;;;;;;7.55;3.67;;;;;;;;;;5076576;28;20044;-48
2021/08/20 12:22:34;;;;;;;11.05;4.30;;;;;;;;;;5072925;28;20495;-47
2021/08/20 12:24:59;;;;;;;12.60;3.97;;;;;;;;;;5076731;28;20077;-48
2021/08/20 12:27:25;;;;;;;6.00;4.03;;;;;;;;;;5075874;28;20434;-50
2021/08/20 12:30:00;;;;;;;4.35;3.38;;;;;;;;;;5072062;28;20033;-51
2021/08/20 12:32:26;;;;;;;20.52;3.63;;;;;;;;;;5072770;28;20012;-50
2021/08/20 12:34:58;;;;;;;7.65;3.47;;;;;;;;;;5070908;28;20542;-51
2021/08/20 12:37:23;;;;;;;17.27;5.13;;;;;;;;;;5071943;28;20028;-49
2021/08/20 12:39:48;;;;;;;9.02;4.35;;;;;;;;;;5075940;28;20081;-48
2021/08/20 12:42:21;;;;;;;7.72;3.13;;;;;;;;;;5077221;28;20380;-45
2021/08/20 12:44:46;;;;;;;7.30;4.18;;;;;;;;;;5069980;28;20036;-48
2021/08/20 12:47:12;;;;;;;5.90;4.53;;;;;;;;;;5076496;28;20016;-52
2021/08/20 12:49:56;;;;;;;9.18;3.47;;;;;;;;;;5073791;28;20024;-46
2021/08/20 12:52:27;;;;;;;13.57;4.05;;;;;;;;;;5069359;28;20033;-50
2021/08/20 12:54:53;;;;;;;15.10;4.00;;;;;;;;;;5074374;28;20071;-46
2021/08/20 12:57:18;;;;;;;7.45;3.15;;;;;;;;;;5070098;28;20059;-50
2021/08/20 12:59:43;;;;;;;5.80;3.15;;;;;;;;;;5076629;28;20028;-49
2021/08/20 13:02:09;;;;;;;7.00;4.15;;;;;;;;;;5076071;28;20028;-51
2021/08/20 13:04:34;;;;;;;8.85;4.03;;;;;;;;;;5074471;28;20376;-51
2021/08/20 13:06:59;;;;;;;5.85;4.28;;;;;;;;;;5070984;28;20111;-51
2021/08/20 13:09:24;;;;;;;4.60;3.08;;;;;;;;;;5079107;28;20073;-51
2021/08/20 13:11:50;;;;;;;8.90;4.07;;;;;;;;;;5076773;28;20486;-50
2021/08/20 13:14:15;;;;;;;8.32;4.28;;;;;;;;;;5074295;28;20017;-47
2021/08/20 13:16:41;;;;;;;7.60;4.68;;;;;;;;;;5074783;28;20024;-45
2021/08/20 13:19:06;;;;;;;7.10;3.35;;;;;;;;;;5075968;28;20025;-52
2021/08/20 13:21:31;;;;;;;7.95;3.20;;;;;;;;;;5074954;28;20090;-52
2021/08/20 13:23:57;;;;;;;10.77;4.57;;;;;;;;;;5067733;28;20075;-50
2021/08/20 13:26:22;;;;;;;12.18;4.82;;;;;;;;;;5071503;28;20027;-50
2021/08/20 13:28:47;;;;;;;7.97;3.58;;;;;;;;;;5070755;28;20038;-49
2021/08/20 13:31:13;;;;;;;7.63;3.03;;;;;;;;;;5069828;28;20553;-49
2021/08/20 13:33:38;;;;;;;5.55;3.53;;;;;;;;;;5072422;28;20012;-47
2021/08/20 13:36:04;;;;;;;15.15;4.85;;;;;;;;;;5071469;28;20533;-51
2021/08/20 13:38:29;;;;;;;6.13;3.45;;;;;;;;;;5076583;28;20085;-51
2021/08/20 13:40:54;;;;;;;7.43;4.63;;;;;;;;;;5074402;28;20042;-51
2021/08/20 13:43:20;;;;;;;6.43;3.78;;;;;;;;;;5073160;28;20021;-51
2021/08/20 13:45:46;;;;;;;20.25;4.93;;;;;;;;;;5072394;28;20033;-50
2021/08/20 13:48:12;;;;;;;9.88;5.18;;;;;;;;;;5076833;28;20139;-51
2021/08/20 13:50:38;;;;;;;5.97;4.53;;;;;;;;;;5074764;28;20591;-48
2021/08/20 13:53:04;;;;;;;6.82;3.35;;;;;;;;;;5072910;28;20026;-49
2021/08/20 13:55:29;;;;;;;4.53;3.50;;;;;;;;;;5071501;28;20027;-49
2021/08/20 13:57:54;;;;;;;17.13;3.90;;;;;;;;;;5070922;28;20620;-50
2021/08/20 14:00:19;;;;;;;14.38;4.00;;;;;;;;;;5074063;28;20115;-52
2021/08/20 14:02:46;;;;;;;10.90;4.07;;;;;;;;;;5069974;28;20079;-50
2021/08/20 14:05:12;;;;;;;8.38;4.10;;;;;;;;;;5075976;28;20031;-50
2021/08/20 14:07:38;;;;;;;6.57;3.90;;;;;;;;;;5072233;28;20032;-48
2021/08/20 14:10:04;;;;;;;14.15;3.95;;;;;;;;;;5070462;28;20035;-50
2021/08/20 14:12:29;;;;;;;13.55;4.57;;;;;;;;;;5068663;28;20030;-53
2021/08/20 14:14:54;;;;;;;9.38;3.90;;;;;;;;;;5076007;28;20020;-50
2021/08/20 14:17:20;;;;;;;13.80;4.82;;;;;;;;;;5073001;28;20550;-50
2021/08/20 14:19:45;;;;;;;8.60;3.50;;;;;;;;;;5073923;28;20082;-49
2021/08/20 14:22:10;;;;;;;5.18;3.83;;;;;;;;;;5076501;28;20024;-52
2021/08/20 14:24:36;;;;;;;6.10;3.50;;;;;;;;;;5066790;28;20064;-52
2021/08/20 14:27:01;;;;;;;13.40;3.90;;;;;;;;;;5070077;28;20356;-50
2021/08/20 14:29:27;;;;;;;7.43;4.50;;;;;;;;;;5076327;28;20131;-49
2021/08/20 14:31:53;;;;;;;6.30;2.75;;;;;;;;;;5073007;28;20377;-45
2021/08/20 14:34:18;;;;;;;6.43;2.92;;;;;;;;;;5068203;28;20108;-48